Multan Weather



Multan's Current Weather

Temprature 21o smoke

smoke

Rain: 0 %

Min Temprature21o
Max Temprature21o
Humidity60
Wind Speed2.1 m/h
Sun Rise06:25:09
Sun Set17:30:20
Current Time: 28-Oct-2020 04:01:36
Lat/Lon: 30.2, 71.48




Multan's Geo Location



Multan's Weather Forecast

Time Overall Temp Min Temp Max Temp Humidity Wind Speed Rain
28-Oct-2020 (Wed)
05:00:00 clear sky 20.060 19.080 20.060 42 2.16 m/h 0 %
08:00:00 clear sky 22.510 22.510 22.920 28 2.13 m/h 0 %
11:00:00 clear sky 30.370 30.370 31.010 15 2.63 m/h 0 %
14:00:00 clear sky 33.980 33.980 34.080 10 3.06 m/h 0 %
17:00:00 clear sky 30.320 30.320 30.320 13 1.93 m/h 0 %
20:00:00 clear sky 24.190 24.190 24.190 18 1.93 m/h 0 %
23:00:00 clear sky 22.070 22.070 22.070 21 2.42 m/h 0 %
29-Oct-2020 (Thu)
02:00:00 clear sky 20.650 20.650 20.650 23 1.96 m/h 0 %
05:00:00 clear sky 18.890 18.890 18.890 26 0.82 m/h 0 %
08:00:00 clear sky 23.350 23.350 23.350 19 2.15 m/h 0 %
11:00:00 clear sky 30.890 30.890 30.890 12 3.31 m/h 0 %
14:00:00 clear sky 33.740 33.740 33.740 10 3.49 m/h 0 %
17:00:00 clear sky 30.010 30.010 30.010 13 3.49 m/h 0 %
20:00:00 clear sky 25.200 25.200 25.200 17 3.57 m/h 0 %
23:00:00 clear sky 21.720 21.720 21.720 21 1.27 m/h 0 %
30-Oct-2020 (Fri)
02:00:00 clear sky 21.510 21.510 21.510 21 2.64 m/h 0 %
05:00:00 clear sky 19.040 19.040 19.040 25 1.1 m/h 0 %
08:00:00 clear sky 23.570 23.570 23.570 19 3.04 m/h 0 %
11:00:00 clear sky 31.600 31.600 31.600 12 3.87 m/h 0 %
14:00:00 clear sky 34.100 34.100 34.100 10 3.83 m/h 0 %
17:00:00 clear sky 30.050 30.050 30.050 13 3.28 m/h 0 %
20:00:00 clear sky 24.650 24.650 24.650 17 2.52 m/h 0 %
23:00:00 clear sky 23.110 23.110 23.110 19 2.69 m/h 0 %
31-Oct-2020 (Sat)
02:00:00 clear sky 19.850 19.850 19.850 23 1.09 m/h 0 %
05:00:00 clear sky 19.500 19.500 19.500 23 1.52 m/h 0 %
08:00:00 clear sky 24.130 24.130 24.130 17 1.57 m/h 0 %
11:00:00 clear sky 32.660 32.660 32.660 10 0.37 m/h 0 %
14:00:00 clear sky 34.130 34.130 34.130 10 2.24 m/h 0 %
17:00:00 clear sky 29.860 29.860 29.860 12 1.67 m/h 0 %
20:00:00 clear sky 24.480 24.480 24.480 17 2.18 m/h 0 %
23:00:00 clear sky 21.600 21.600 21.600 20 2.25 m/h 0 %
01-Nov-2020 (Sun)
02:00:00 clear sky 20.720 20.720 20.720 21 1.92 m/h 0 %
05:00:00 clear sky 18.750 18.750 18.750 24 1.49 m/h 0 %
08:00:00 clear sky 22.310 22.310 22.310 19 1.75 m/h 0 %
11:00:00 clear sky 31.020 31.020 31.020 12 1.19 m/h 0 %
14:00:00 clear sky 34.060 34.060 34.060 9 2.67 m/h 0 %
17:00:00 clear sky 29.610 29.610 29.610 12 2.08 m/h 0 %
20:00:00 clear sky 24.190 24.190 24.190 17 2.76 m/h 0 %
23:00:00 clear sky 21.200 21.200 21.200 21 1.22 m/h 0 %
02-Nov-2020 (Mon)
02:00:00 clear sky 19.190 19.190 19.190 23 0.56 m/h 0 %

Famous Cities (60)